Time;durP1;ratioP1;P1;durP2;ratioP2;P2;SDS_P1;SDS_P2;PMS_P1;PMS_P2;Temp;Humidity;BMP_temperature;BMP_pressure;BME280_temperature;BME280_humidity;BME280_pressure;Samples;Min_cycle;Max_cycle;Signal;HPM_P1;HPM_P2
2023/01/08 00:01:06;;;;;;;23.00;10.05;;;;;;;1.62;73.72;100762.13;5065401;28;20553;-26
2023/01/08 00:03:32;;;;;;;21.88;11.40;;;;;;;1.85;72.55;100775.75;5065555;28;20047;-27
2023/01/08 00:06:05;;;;;;;16.92;9.35;;;;;;;1.94;72.42;100769.63;5065423;28;20469;-25
2023/01/08 00:08:31;;;;;;;21.70;10.35;;;;;;;2.13;72.27;100786.28;5065313;28;20032;-26
2023/01/08 00:10:57;;;;;;;17.65;9.98;;;;;;;1.74;73.55;100789.09;5065187;28;20445;-26
2023/01/08 00:13:23;;;;;;;23.00;11.10;;;;;;;1.66;73.53;100781.91;5065031;28;20047;-27
2023/01/08 00:15:49;;;;;;;20.75;11.38;;;;;;;1.81;73.01;100769.13;5065466;28;20029;-26
2023/01/08 00:18:14;;;;;;;18.95;10.35;;;;;;;1.86;72.40;100771.31;5065121;28;20028;-25
2023/01/08 00:20:41;;;;;;;23.58;11.45;;;;;;;1.57;72.53;100775.72;5065266;28;20048;-26
2023/01/08 00:23:10;;;;;;;31.25;13.20;;;;;;;0.90;75.06;100758.22;5065168;28;20031;-26
2023/01/08 00:25:36;;;;;;;34.28;16.35;;;;;;;0.58;75.33;100782.97;5064677;28;20057;-26
2023/01/08 00:28:01;;;;;;;38.78;19.15;;;;;;;0.92;73.05;100777.31;5064995;28;20112;-25
2023/01/08 00:30:27;;;;;;;38.67;19.08;;;;;;;0.74;74.28;100769.31;5064996;28;20037;-26
2023/01/08 00:32:52;;;;;;;42.03;19.13;;;;;;;0.66;74.48;100769.16;5063617;28;20029;-26
2023/01/08 00:35:17;;;;;;;46.38;21.30;;;;;;;0.63;75.40;100772.88;5064754;28;20111;-25
2023/01/08 00:37:43;;;;;;;37.70;18.88;;;;;;;0.71;75.07;100774.81;5053890;28;20033;-25
2023/01/08 00:40:09;;;;;;;49.67;22.02;;;;;;;0.84;73.40;100753.53;5051279;28;20032;-28
2023/01/08 00:42:34;;;;;;;36.70;18.75;;;;;;;0.72;73.58;100760.75;5051341;28;20028;-26
2023/01/08 00:44:59;;;;;;;36.15;17.65;;;;;;;0.31;75.20;100771.31;5051525;28;20500;-28
2023/01/08 00:47:25;;;;;;;41.20;19.05;;;;;;;-0.10;76.02;100762.66;5050874;28;20134;-28
2023/01/08 00:49:50;;;;;;;44.35;21.55;;;;;;;-0.09;76.38;100760.84;5049486;28;20037;-28
2023/01/08 00:52:16;;;;;;;28.15;16.38;;;;;;;0.73;73.71;100765.00;5048962;28;20116;-27
2023/01/08 00:54:41;;;;;;;32.13;16.30;;;;;;;0.64;74.78;100774.56;5050716;28;20021;-26
2023/01/08 00:57:06;;;;;;;24.75;13.05;;;;;;;0.28;76.65;100779.44;5049410;28;20470;-26
2023/01/08 00:59:32;;;;;;;29.75;15.00;;;;;;;0.40;75.64;100770.50;5051057;28;20029;-25
2023/01/08 01:01:57;;;;;;;27.70;14.93;;;;;;;0.78;75.48;100776.78;5049855;28;20028;-25
2023/01/08 01:04:25;;;;;;;33.20;16.25;;;;;;;0.89;74.77;100772.34;5049512;28;20025;-27
2023/01/08 01:06:50;;;;;;;40.70;17.75;;;;;;;0.75;73.82;100770.97;5051142;28;20108;-24
2023/01/08 01:09:16;;;;;;;49.53;22.98;;;;;;;0.34;74.87;100771.03;5050730;28;20085;-25
2023/01/08 01:11:41;;;;;;;42.42;22.13;;;;;;;-0.03;76.33;100761.13;5049552;28;20025;-25
2023/01/08 01:14:08;;;;;;;43.70;19.25;;;;;;;-0.24;75.93;100747.28;5050784;28;20171;-25
2023/01/08 01:16:35;;;;;;;22.77;12.25;;;;;;;-0.47;75.54;100778.91;5051053;28;20029;-25
2023/01/08 01:19:00;;;;;;;22.25;10.93;;;;;;;-0.63;75.91;100774.13;5049425;28;20041;-26
2023/01/08 01:21:28;;;;;;;22.25;11.10;;;;;;;-0.65;75.79;100780.44;5051143;28;20040;-25
2023/01/08 01:23:59;;;;;;;20.10;11.23;;;;;;;-0.33;74.74;100763.78;5049671;28;20037;-25
2023/01/08 01:26:26;;;;;;;23.15;11.38;;;;;;;-0.29;75.29;100759.94;5048940;28;20061;-25
2023/01/08 01:28:53;;;;;;;21.77;10.93;;;;;;;-0.15;75.44;100761.38;5049448;28;20059;-28
2023/01/08 01:31:19;;;;;;;20.17;10.90;;;;;;;-0.53;75.75;100747.97;5050729;28;20033;-24
2023/01/08 01:33:45;;;;;;;20.38;10.00;;;;;;;-0.54;76.50;100772.50;5050781;28;20021;-26
2023/01/08 01:36:12;;;;;;;20.88;9.82;;;;;;;-0.55;76.34;100752.50;5048864;28;20507;-28
2023/01/08 01:38:41;;;;;;;22.13;10.48;;;;;;;-0.52;76.91;100754.84;5050464;28;20044;-24
2023/01/08 01:41:06;;;;;;;20.27;10.43;;;;;;;-0.55;77.18;100773.47;5050236;28;20121;-27
2023/01/08 01:43:41;;;;;;;18.20;9.90;;;;;;;-0.45;77.41;100755.16;5049069;28;20083;-25
2023/01/08 01:46:37;;;;;;;19.17;9.75;;;;;;;-0.43;77.50;100767.19;5048740;28;20025;-25
2023/01/08 01:49:12;;;;;;;24.75;10.85;;;;;;;-0.15;77.74;100764.81;5049217;28;20055;-30
2023/01/08 01:51:43;;;;;;;24.60;11.75;;;;;;;-0.04;77.80;100742.91;5050341;28;20091;-27
2023/01/08 01:54:11;;;;;;;18.77;11.10;;;;;;;0.20;79.02;100758.31;5050165;28;20032;-26
2023/01/08 01:56:37;;;;;;;18.85;10.57;;;;;;;0.42;79.52;100751.19;5050069;28;20029;-25
2023/01/08 01:59:03;;;;;;;18.20;11.02;;;;;;;0.30;79.84;100735.53;5050047;28;20029;-25
2023/01/08 02:01:30;;;;;;;18.65;11.25;;;;;;;0.17;79.45;100761.22;5049972;28;20029;-27
2023/01/08 02:03:56;;;;;;;21.90;11.15;;;;;;;0.04;80.38;100768.47;5050443;28;20024;-27
2023/01/08 02:06:55;;;;;;;23.48;12.20;;;;;;;0.49;79.76;100758.38;5048419;28;20393;-25
2023/01/08 02:09:44;;;;;;;21.77;12.43;;;;;;;0.43;78.88;100745.81;5048118;28;20047;-26
2023/01/08 02:12:50;;;;;;;28.75;14.73;;;;;;;0.49;78.68;100765.41;5047912;28;20481;-26
2023/01/08 02:15:25;;;;;;;43.28;20.52;;;;;;;0.37;79.09;100762.91;5049881;28;20497;-26
2023/01/08 02:18:15;;;;;;;35.25;18.33;;;;;;;0.59;77.85;100771.50;5048370;28;20033;-25
2023/01/08 02:21:05;;;;;;;50.42;22.77;;;;;;;0.64;77.36;100753.56;5048559;28;20028;-25
2023/01/08 02:23:57;;;;;;;41.10;20.38;;;;;;;0.61;77.17;100748.56;5049458;28;20405;-25
2023/01/08 02:26:30;;;;;;;45.40;23.63;;;;;;;0.52;77.52;100760.72;5049246;28;20049;-26
2023/01/08 02:29:02;;;;;;;35.10;19.98;;;;;;;0.64;76.87;100769.28;5049654;28;20061;-26
2023/01/08 02:31:30;;;;;;;29.05;15.27;;;;;;;0.50;76.77;100753.94;5049546;28;20029;-25
2023/01/08 02:33:55;;;;;;;29.55;16.05;;;;;;;0.46;76.76;100757.81;5049243;28;20025;-25
2023/01/08 02:36:38;;;;;;;29.17;15.75;;;;;;;0.31;77.49;100752.97;5049145;28;20085;-26
2023/01/08 02:39:25;;;;;;;29.85;16.85;;;;;;;0.80;76.14;100753.00;5049338;28;20025;-26
2023/01/08 02:42:23;;;;;;;35.57;18.53;;;;;;;0.67;76.49;100750.63;5047955;28;20032;-27
2023/01/08 02:45:13;;;;;;;38.60;18.67;;;;;;;0.82;74.02;100751.06;5048716;28;20099;-27
2023/01/08 02:47:53;;;;;;;39.40;20.65;;;;;;;0.37;75.78;100747.16;5049138;28;20028;-25
2023/01/08 02:50:22;;;;;;;39.55;20.42;;;;;;;0.17;76.10;100751.53;5047724;28;20041;-25
2023/01/08 02:53:08;;;;;;;41.88;20.38;;;;;;;-0.08;77.01;100747.63;5048989;28;20021;-26
2023/01/08 02:55:35;;;;;;;51.15;22.73;;;;;;;-0.12;77.55;100740.97;5048734;28;20072;-25
2023/01/08 02:58:02;;;;;;;44.85;21.83;;;;;;;-0.22;77.07;100729.63;5047288;28;20057;-30
2023/01/08 03:00:29;;;;;;;44.38;23.17;;;;;;;-0.29;77.80;100739.78;5047370;28;20036;-25
2023/01/08 03:03:09;;;;;;;48.30;23.13;;;;;;;-0.31;78.50;100735.66;5049236;28;20480;-26
2023/01/08 03:05:39;;;;;;;44.88;23.45;;;;;;;-0.18;78.04;100741.50;5048833;28;20029;-28
2023/01/08 03:08:04;;;;;;;43.58;22.55;;;;;;;-0.18;77.94;100757.22;5047222;28;20024;-26
2023/01/08 03:10:31;;;;;;;47.55;23.23;;;;;;;-0.13;77.26;100744.53;5047307;28;20037;-25
2023/01/08 03:13:02;;;;;;;40.95;21.00;;;;;;;-0.02;77.31;100741.84;5049194;28;20029;-28
2023/01/08 03:15:36;;;;;;;41.10;22.08;;;;;;;-0.05;77.29;100746.50;5049219;28;20033;-26
2023/01/08 03:18:09;;;;;;;40.03;20.83;;;;;;;0.40;75.40;100744.25;5048554;28;20029;-25
2023/01/08 03:20:36;;;;;;;42.13;21.92;;;;;;;0.04;76.28;100740.47;5048675;28;20106;-27
2023/01/08 03:23:07;;;;;;;37.13;21.08;;;;;;;-0.29;76.12;100723.25;5048891;28;20032;-26
2023/01/08 03:25:35;;;;;;;42.05;21.33;;;;;;;-0.15;75.54;100746.47;5048238;28;20060;-25
2023/01/08 03:28:06;;;;;;;41.40;21.40;;;;;;;-0.57;76.20;100730.00;5048266;28;20025;-25
2023/01/08 03:30:32;;;;;;;37.88;19.05;;;;;;;-0.89;76.91;100744.84;5047050;28;20033;-26
2023/01/08 03:33:00;;;;;;;37.22;18.23;;;;;;;-0.49;74.91;100749.38;5047369;28;20082;-26
2023/01/08 03:35:28;;;;;;;35.95;17.25;;;;;;;-0.68;75.64;100749.25;5048283;28;20126;-26
2023/01/08 03:38:03;;;;;;;41.83;19.00;;;;;;;-0.83;76.72;100756.63;5048848;28;20580;-27
2023/01/08 03:40:35;;;;;;;41.53;20.02;;;;;;;-0.48;75.56;100724.81;5048560;28;20115;-25
2023/01/08 03:43:01;;;;;;;44.25;21.50;;;;;;;-0.26;74.60;100729.06;5048634;28;20039;-27
2023/01/08 03:45:30;;;;;;;40.42;21.02;;;;;;;-0.28;74.91;100730.16;5048366;28;20025;-25
2023/01/08 03:47:57;;;;;;;42.38;21.75;;;;;;;-0.21;74.95;100736.50;5048334;28;20029;-26
2023/01/08 03:50:26;;;;;;;41.03;21.15;;;;;;;0.18;75.32;100741.88;5046949;28;20025;-25
2023/01/08 03:52:52;;;;;;;40.42;20.52;;;;;;;0.18;74.50;100728.75;5048543;28;20021;-25
2023/01/08 03:55:17;;;;;;;38.53;20.42;;;;;;;-0.18;74.76;100725.78;5048324;28;20456;-26
2023/01/08 03:57:43;;;;;;;43.03;19.23;;;;;;;-0.82;76.60;100719.84;5046926;28;20032;-25
2023/01/08 04:00:09;;;;;;;36.38;18.90;;;;;;;-0.33;75.98;100732.31;5047916;28;20064;-25
2023/01/08 04:02:35;;;;;;;42.28;21.67;;;;;;;-0.13;77.07;100731.44;5047999;28;20036;-25
2023/01/08 04:05:00;;;;;;;40.72;20.75;;;;;;;-0.25;77.66;100735.94;5048501;28;20037;-26
2023/01/08 04:07:26;;;;;;;35.22;19.75;;;;;;;-0.24;77.50;100737.63;5046646;28;20064;-25
2023/01/08 04:09:52;;;;;;;46.00;21.15;;;;;;;-0.29;78.42;100733.72;5046884;28;20037;-26
2023/01/08 04:12:17;;;;;;;35.95;19.67;;;;;;;-0.07;75.74;100737.94;5049281;28;20017;-26
2023/01/08 04:14:42;;;;;;;37.95;20.15;;;;;;;0.05;74.41;100736.06;5052056;28;20056;-25
2023/01/08 04:17:11;;;;;;;43.95;20.60;;;;;;;-0.03;74.67;100748.03;5051849;28;20036;-25
2023/01/08 04:19:37;;;;;;;38.78;20.33;;;;;;;0.08;74.73;100757.59;5050603;28;20594;-25
2023/01/08 04:22:02;;;;;;;44.83;22.73;;;;;;;-0.10;74.81;100727.72;5050577;28;20119;-25
2023/01/08 04:24:28;;;;;;;45.50;24.40;;;;;;;0.12;74.12;100763.38;5051618;28;20036;-26
2023/01/08 04:26:53;;;;;;;50.67;24.70;;;;;;;0.19;73.75;100762.72;5050131;28;20076;-25
2023/01/08 04:29:19;;;;;;;44.63;23.60;;;;;;;-0.02;75.01;100747.09;5051664;28;20407;-25
2023/01/08 04:31:44;;;;;;;38.92;22.83;;;;;;;-0.21;75.53;100736.50;5049833;28;20029;-27
2023/01/08 04:34:10;;;;;;;40.10;21.08;;;;;;;-0.26;76.28;100738.72;5050991;28;20139;-28
2023/01/08 04:36:35;;;;;;;41.47;20.70;;;;;;;-0.02;75.15;100756.72;5049502;28;20060;-28
2023/01/08 04:39:01;;;;;;;44.60;23.42;;;;;;;0.03;75.04;100759.78;5050843;28;20024;-28
2023/01/08 04:41:26;;;;;;;41.90;22.73;;;;;;;-0.16;75.21;100741.34;5051147;28;20089;-29
2023/01/08 04:43:51;;;;;;;46.78;22.50;;;;;;;-0.57;75.82;100741.34;5051338;28;20043;-24
2023/01/08 04:46:17;;;;;;;40.58;21.80;;;;;;;-1.01;76.84;100769.44;5050708;28;20207;-25
2023/01/08 04:48:42;;;;;;;43.20;20.63;;;;;;;-1.09;75.93;100758.78;5051544;28;20029;-27
2023/01/08 04:51:07;;;;;;;40.13;19.50;;;;;;;-1.43;75.34;100770.22;5051546;28;20068;-26
2023/01/08 04:53:35;;;;;;;32.03;17.80;;;;;;;-1.46;76.44;100756.53;5051200;28;20405;-26
2023/01/08 04:56:05;;;;;;;31.48;15.88;;;;;;;-1.89;77.83;100750.31;5050958;28;20033;-29
2023/01/08 04:58:32;;;;;;;34.58;18.40;;;;;;;-1.95;78.54;100757.84;5049488;28;20410;-28
2023/01/08 05:00:58;;;;;;;27.60;14.57;;;;;;;-2.28;78.67;100746.44;5051014;28;20481;-24
2023/01/08 05:03:23;;;;;;;30.10;15.57;;;;;;;-2.14;78.58;100772.34;5051093;28;20032;-25
2023/01/08 05:05:49;;;;;;;33.08;19.27;;;;;;;-2.00;77.99;100754.72;5050952;28;20443;-27
2023/01/08 05:08:14;;;;;;;30.52;17.60;;;;;;;-2.14;77.76;100748.81;5050728;28;21182;-26
2023/01/08 05:10:40;;;;;;;38.80;18.00;;;;;;;-2.03;78.02;100766.28;5051307;28;20036;-26
2023/01/08 05:13:06;;;;;;;34.30;18.23;;;;;;;-1.56;76.45;100776.53;5049327;28;20029;-30
2023/01/08 05:15:32;;;;;;;45.80;22.20;;;;;;;-1.15;77.01;100767.13;5049488;28;20179;-27
2023/01/08 05:18:02;;;;;;;47.13;22.10;;;;;;;-1.42;76.99;100765.78;5050872;28;20025;-25
2023/01/08 05:20:28;;;;;;;40.20;21.73;;;;;;;-1.65;78.57;100784.16;5050601;28;20425;-25
2023/01/08 05:22:54;;;;;;;44.80;21.42;;;;;;;-1.90;79.80;100760.91;5050568;28;20025;-27
2023/01/08 05:25:19;;;;;;;37.17;20.38;;;;;;;-1.51;79.71;100788.31;5050021;28;20513;-28
2023/01/08 05:27:46;;;;;;;37.10;19.08;;;;;;;-1.71;77.84;100771.56;5050572;28;20032;-27
2023/01/08 05:30:12;;;;;;;32.28;18.88;;;;;;;-1.51;77.11;100776.97;5050353;28;20028;-28
2023/01/08 05:32:37;;;;;;;35.25;19.85;;;;;;;-1.30;77.55;100785.72;5050455;28;20029;-26
2023/01/08 05:35:03;;;;;;;35.42;19.35;;;;;;;-1.05;76.49;100786.34;5049087;28;20436;-25
2023/01/08 05:37:28;;;;;;;38.45;19.63;;;;;;;-0.76;75.75;100788.34;5050570;28;20033;-25
2023/01/08 05:39:53;;;;;;;40.03;19.35;;;;;;;-0.91;75.98;100765.09;5049443;28;20029;-26
2023/01/08 05:42:19;;;;;;;45.53;27.40;;;;;;;-0.92;77.68;100763.47;5049568;28;20051;-28
2023/01/08 05:44:44;;;;;;;57.75;28.52;;;;;;;-1.19;78.49;100790.09;5049509;28;20025;-26
2023/01/08 05:47:10;;;;;;;48.10;24.25;;;;;;;-1.08;77.73;100774.34;5048830;28;20037;-25
2023/01/08 05:49:35;;;;;;;37.10;18.92;;;;;;;-1.50;77.85;100742.03;5050176;28;20116;-27
2023/01/08 05:52:00;;;;;;;35.85;17.55;;;;;;;-1.26;78.17;100792.38;5049690;28;20033;-27
2023/01/08 05:54:26;;;;;;;30.15;16.80;;;;;;;-1.50;78.63;100794.34;5050082;28;20040;-25
2023/01/08 05:56:51;;;;;;;39.60;22.77;;;;;;;-1.52;77.87;100764.88;5049606;28;20037;-27
2023/01/08 05:59:16;;;;;;;47.83;27.30;;;;;;;-1.39;77.39;100789.09;5049823;28;20029;-26
2023/01/08 06:01:42;;;;;;;50.40;32.28;;;;;;;-1.57;78.75;100788.78;5048669;28;20025;-26
2023/01/08 06:04:07;;;;;;;34.67;20.77;;;;;;;-1.55;77.48;100794.72;5049659;28;20583;-26
2023/01/08 06:06:33;;;;;;;29.75;17.00;;;;;;;-1.91;77.19;100794.06;5049504;28;20033;-25
2023/01/08 06:08:58;;;;;;;33.88;16.73;;;;;;;-2.20;78.01;100775.44;5049783;28;20607;-25
2023/01/08 06:11:23;;;;;;;27.02;15.70;;;;;;;-2.13;78.44;100774.00;5049676;28;20021;-26
2023/01/08 06:13:49;;;;;;;32.13;16.45;;;;;;;-1.74;77.35;100790.13;5049654;28;20024;-24
2023/01/08 06:16:16;;;;;;;29.75;16.77;;;;;;;-1.32;76.85;100789.44;5049591;28;20040;-25
2023/01/08 06:18:41;;;;;;;36.05;17.48;;;;;;;-1.18;76.74;100804.03;5048236;28;20432;-27
2023/01/08 06:21:07;;;;;;;35.83;20.02;;;;;;;-1.46;77.58;100806.25;5048189;28;20045;-25
2023/01/08 06:23:32;;;;;;;35.97;19.27;;;;;;;-1.04;78.56;100811.59;5049820;28;20493;-26
2023/01/08 06:25:59;;;;;;;42.25;21.17;;;;;;;-0.82;79.24;100795.78;5049425;28;20045;-25
2023/01/08 06:28:26;;;;;;;44.95;21.73;;;;;;;-0.74;79.51;100796.91;5049230;28;20524;-26
2023/01/08 06:30:51;;;;;;;57.25;25.92;;;;;;;-0.52;79.50;100816.91;5048010;28;20063;-28
2023/01/08 06:33:17;;;;;;;43.92;22.55;;;;;;;-0.82;78.86;100805.41;5047806;28;20047;-25
2023/01/08 06:35:43;;;;;;;48.75;22.65;;;;;;;-0.97;79.57;100807.50;5048493;28;20029;-26
2023/01/08 06:38:08;;;;;;;67.25;40.38;;;;;;;-0.58;80.28;100807.78;5048820;28;20044;-25
2023/01/08 06:40:34;;;;;;;529.70;255.35;;;;;;;-0.21;78.76;100829.09;5047386;28;20025;-26
2023/01/08 06:43:04;;;;;;;110.25;51.65;;;;;;;-0.42;80.03;100813.38;5049028;28;20024;-25
2023/01/08 06:45:30;;;;;;;57.15;26.73;;;;;;;-0.34;79.26;100840.75;5049097;28;20091;-26
2023/01/08 06:47:59;;;;;;;34.55;19.75;;;;;;;-0.50;78.62;100841.19;5047755;28;20514;-28
2023/01/08 06:50:25;;;;;;;37.30;18.90;;;;;;;-0.81;79.11;100818.38;5049092;28;20623;-25
2023/01/08 06:52:53;;;;;;;33.47;18.17;;;;;;;-0.81;79.59;100828.84;5048938;28;20021;-26
2023/01/08 06:55:19;;;;;;;38.83;20.02;;;;;;;-0.57;79.47;100846.13;5048849;28;20064;-26
2023/01/08 06:57:44;;;;;;;33.42;18.33;;;;;;;-0.70;79.43;100845.47;5047669;28;20052;-25
2023/01/08 07:00:10;;;;;;;35.40;18.98;;;;;;;-0.56;79.51;100853.00;5048818;28;20501;-26
2023/01/08 07:02:35;;;;;;;53.00;27.65;;;;;;;-0.47;80.13;100857.50;5048843;28;20035;-26
2023/01/08 07:05:01;;;;;;;89.35;46.50;;;;;;;-0.45;80.11;100858.22;5048607;28;20029;-25
2023/01/08 07:07:26;;;;;;;52.10;30.83;;;;;;;-0.32;80.48;100855.38;5047362;28;20025;-26
2023/01/08 07:09:51;;;;;;;57.45;33.47;;;;;;;-0.20;80.22;100840.41;5048659;28;20032;-26
2023/01/08 07:12:17;;;;;;;63.88;34.00;;;;;;;-0.19;80.09;100842.06;5048353;28;20108;-26
2023/01/08 07:14:42;;;;;;;62.85;36.78;;;;;;;-0.12;80.57;100853.72;5047297;28;20036;-26
2023/01/08 07:17:08;;;;;;;77.90;42.55;;;;;;;0.26;79.98;100854.84;5030825;28;20413;-28
2023/01/08 07:19:33;;;;;;;68.35;36.70;;;;;;;0.43;79.08;100839.41;5048656;28;20512;-29
2023/01/08 07:21:59;;;;;;;70.47;38.85;;;;;;;0.57;79.01;100853.00;5048747;28;20405;-26
2023/01/08 07:24:24;;;;;;;60.13;34.53;;;;;;;0.74;79.07;100851.53;5046881;28;20025;-29
2023/01/08 07:26:49;;;;;;;59.50;33.03;;;;;;;0.78;79.00;100828.47;5047103;28;20041;-24
2023/01/08 07:29:15;;;;;;;58.00;31.92;;;;;;;0.91;79.26;100812.44;5048110;28;20043;-26
2023/01/08 07:31:40;;;;;;;49.72;29.00;;;;;;;0.88;80.10;100836.31;5039134;28;20127;-28
2023/01/08 07:34:06;;;;;;;46.88;26.60;;;;;;;1.08;80.77;100860.81;5036200;28;20159;-25
2023/01/08 07:36:31;;;;;;;37.83;24.90;;;;;;;1.32;79.85;100842.00;5028684;28;20531;-31
2023/01/08 07:38:57;;;;;;;37.15;23.15;;;;;;;1.26;80.22;100864.41;5028368;28;20022;-25
2023/01/08 07:41:22;;;;;;;36.38;20.30;;;;;;;1.39;80.77;100859.72;5027534;28;20030;-31
2023/01/08 07:43:48;;;;;;;38.58;21.52;;;;;;;1.78;79.80;100866.72;5028065;28;20101;-28
2023/01/08 07:46:14;;;;;;;33.55;19.30;;;;;;;1.82;79.37;100876.00;5027520;28;20095;-28
2023/01/08 07:48:40;;;;;;;34.25;18.60;;;;;;;1.78;80.38;100875.44;5030322;28;20071;-29
2023/01/08 07:51:07;;;;;;;31.92;18.52;;;;;;;1.83;80.43;100863.66;5048381;28;20033;-27
2023/01/08 07:53:33;;;;;;;28.63;17.67;;;;;;;1.96;79.49;100882.56;5052347;28;20067;-26
2023/01/08 07:56:00;;;;;;;28.73;16.67;;;;;;;2.01;79.53;100877.72;5052091;28;20068;-25
2023/01/08 07:58:26;;;;;;;23.43;16.90;;;;;;;2.29;79.84;100878.59;5049023;28;20108;-27
2023/01/08 08:00:52;;;;;;;28.33;15.32;;;;;;;2.56;77.58;100884.84;5049225;28;20021;-29
2023/01/08 08:03:17;;;;;;;28.17;15.50;;;;;;;2.41;77.48;100861.66;5042052;28;20038;-27
2023/01/08 08:05:43;;;;;;;23.38;15.75;;;;;;;2.84;77.09;100855.84;5040793;28;20021;-27
2023/01/08 08:08:10;;;;;;;25.98;15.88;;;;;;;3.14;76.76;100852.84;5040173;28;20024;-26
2023/01/08 08:10:36;;;;;;;24.65;15.82;;;;;;;3.39;75.95;100871.50;5040586;28;20021;-27
2023/01/08 08:13:01;;;;;;;22.95;15.00;;;;;;;3.20;76.43;100870.69;5039240;28;20037;-27
2023/01/08 08:15:27;;;;;;;26.00;15.30;;;;;;;3.61;75.48;100870.22;5040845;28;20467;-26
2023/01/08 08:17:52;;;;;;;26.70;15.20;;;;;;;3.77;74.95;100864.22;5040801;28;20487;-28
2023/01/08 08:20:18;;;;;;;26.83;16.00;;;;;;;3.82;74.23;100859.31;5039431;28;20067;-27
2023/01/08 08:22:43;;;;;;;26.50;15.55;;;;;;;3.91;74.06;100866.31;5040786;28;20026;-31
2023/01/08 08:25:09;;;;;;;28.83;17.60;;;;;;;4.14;72.78;100865.75;5030844;28;20103;-27
2023/01/08 08:27:34;;;;;;;28.50;17.60;;;;;;;4.17;71.78;100870.75;5031713;28;20023;-26
2023/01/08 08:30:00;;;;;;;28.50;16.08;;;;;;;4.14;72.08;100863.13;5031339;28;20033;-29
2023/01/08 08:32:25;;;;;;;25.30;16.80;;;;;;;4.39;71.70;100849.06;5031529;28;20405;-27
2023/01/08 08:34:51;;;;;;;27.88;15.80;;;;;;;4.20;73.55;100857.22;5031348;28;20486;-30
2023/01/08 08:37:16;;;;;;;25.20;16.02;;;;;;;4.21;73.35;100840.41;5031541;28;20025;-27
2023/01/08 08:39:41;;;;;;;24.55;14.38;;;;;;;4.58;71.86;100850.59;5031302;28;20057;-27
2023/01/08 08:42:07;;;;;;;27.02;14.82;;;;;;;4.93;71.95;100856.63;5029269;28;20032;-28
2023/01/08 08:44:32;;;;;;;21.63;13.23;;;;;;;5.08;71.01;100843.59;5030874;28;20460;-28
2023/01/08 08:46:58;;;;;;;23.95;14.45;;;;;;;5.08;70.11;100861.28;5030851;28;20028;-29
2023/01/08 08:49:23;;;;;;;21.75;14.40;;;;;;;5.41;69.39;100870.91;5030974;28;20040;-26
2023/01/08 08:51:49;;;;;;;24.67;15.85;;;;;;;5.83;67.67;100858.47;5030856;28;20387;-25
2023/01/08 08:54:14;;;;;;;23.30;14.65;;;;;;;5.91;67.53;100866.41;5031109;28;20056;-28
2023/01/08 08:56:39;;;;;;;24.77;15.88;;;;;;;6.13;66.58;100861.38;5031371;28;20036;-26
2023/01/08 08:59:05;;;;;;;22.40;14.40;;;;;;;6.47;66.14;100857.63;5029229;28;20159;-27
2023/01/08 09:01:30;;;;;;;22.88;15.20;;;;;;;6.95;64.37;100861.03;5029749;28;20026;-28
2023/01/08 09:03:56;;;;;;;22.23;14.52;;;;;;;6.90;64.17;100842.97;5030817;28;20026;-27
2023/01/08 09:06:22;;;;;;;25.77;15.57;;;;;;;7.01;64.69;100842.59;5030630;28;20078;-28
2023/01/08 09:08:48;;;;;;;30.13;20.02;;;;;;;7.43;62.33;100851.88;5030623;28;20094;-26
2023/01/08 09:11:13;;;;;;;29.20;18.13;;;;;;;7.59;62.14;100845.59;5031352;28;20030;-26
2023/01/08 09:13:39;;;;;;;28.90;17.48;;;;;;;7.71;61.10;100847.84;5030817;28;20521;-27
2023/01/08 09:16:04;;;;;;;34.15;18.45;;;;;;;7.49;61.63;100833.59;5046057;28;20037;-28
2023/01/08 09:18:30;;;;;;;21.88;11.73;;;;;;;7.76;61.09;100834.81;5050463;28;20028;-27
2023/01/08 09:20:55;;;;;;;20.65;12.07;;;;;;;7.96;60.88;100838.59;5050168;28;20791;-31
2023/01/08 09:23:20;;;;;;;17.63;12.23;;;;;;;8.17;59.69;100835.22;5050100;28;20031;-28
2023/01/08 09:25:46;;;;;;;21.27;11.75;;;;;;;8.37;60.31;100840.78;5050032;28;20045;-27
2023/01/08 09:28:12;;;;;;;19.65;12.43;;;;;;;8.45;59.93;100829.25;5050313;28;20036;-28
2023/01/08 09:30:38;;;;;;;19.95;12.02;;;;;;;8.14;60.92;100805.53;5049734;28;20035;-28
2023/01/08 09:33:04;;;;;;;17.75;10.77;;;;;;;8.14;60.26;100816.16;5050203;28;20044;-27
2023/01/08 09:35:33;;;;;;;19.70;12.43;;;;;;;8.40;59.03;100797.91;5048967;28;20032;-26
2023/01/08 09:37:58;;;;;;;22.42;11.85;;;;;;;8.71;58.19;100812.78;5048879;28;20028;-26
2023/01/08 09:40:33;;;;;;;26.85;14.18;;;;;;;8.73;59.28;100794.81;5048970;28;20028;-28
2023/01/08 09:43:00;;;;;;;14.25;8.93;;;;;;;8.93;57.93;100805.66;5048672;28;20029;-29
2023/01/08 09:45:30;;;;;;;17.50;9.77;;;;;;;9.13;57.20;100805.00;5049679;28;20037;-28
2023/01/08 09:48:01;;;;;;;17.38;10.55;;;;;;;9.71;56.86;100802.19;5049496;28;20029;-34
2023/01/08 09:50:28;;;;;;;15.45;9.43;;;;;;;9.64;55.91;100784.31;5048201;28;20033;-26
2023/01/08 09:52:54;;;;;;;14.10;9.35;;;;;;;9.75;55.02;100782.13;5049857;28;20025;-27
2023/01/08 09:55:19;;;;;;;23.80;15.70;;;;;;;10.02;55.03;100778.59;5048746;28;20493;-29
2023/01/08 09:57:46;;;;;;;17.02;10.10;;;;;;;10.30;54.85;100777.72;5049943;28;20024;-26
2023/01/08 10:00:19;;;;;;;15.18;8.65;;;;;;;10.10;53.90;100768.78;5049567;28;20087;-30
2023/01/08 10:02:45;;;;;;;16.35;10.30;;;;;;;10.47;54.63;100780.03;5048383;28;20036;-27
2023/01/08 10:05:13;;;;;;;15.90;9.45;;;;;;;10.09;55.30;100777.78;5048398;28;20029;-26
2023/01/08 10:07:39;;;;;;;22.75;20.13;;;;;;;10.44;54.03;100766.06;5048459;28;20566;-27
2023/01/08 10:10:05;;;;;;;25.10;22.50;;;;;;;11.06;52.29;100773.97;5048858;28;20033;-30
2023/01/08 10:12:32;;;;;;;14.85;9.90;;;;;;;11.02;52.76;100767.41;5049691;28;20033;-27
2023/01/08 10:15:05;;;;;;;15.43;9.23;;;;;;;11.31;51.89;100763.50;5049516;28;20036;-27
2023/01/08 10:17:30;;;;;;;16.58;10.25;;;;;;;11.42;51.34;100767.38;5047817;28;20025;-29
2023/01/08 10:19:55;;;;;;;14.13;9.20;;;;;;;11.24;52.28;100750.16;5042349;28;20171;-28
2023/01/08 10:22:30;;;;;;;26.65;20.55;;;;;;;11.33;50.95;100744.59;5029390;28;20500;-27
2023/01/08 10:25:07;;;;;;;11.55;8.00;;;;;;;11.68;50.21;100750.50;5029117;28;20046;-29
2023/01/08 10:27:44;;;;;;;13.05;9.10;;;;;;;11.64;49.92;100750.09;5029564;28;20022;-28
2023/01/08 10:30:15;;;;;;;14.27;8.30;;;;;;;11.80;49.91;100742.66;5029441;28;20078;-26
2023/01/08 10:32:47;;;;;;;15.20;9.55;;;;;;;11.48;52.15;100734.50;5028020;28;20025;-32
2023/01/08 10:35:17;;;;;;;17.08;10.32;;;;;;;11.54;52.19;100733.66;5029357;28;20017;-27
2023/01/08 10:37:45;;;;;;;22.73;12.80;;;;;;;11.56;51.06;100734.28;5028076;28;20029;-26
2023/01/08 10:40:34;;;;;;;87.10;36.10;;;;;;;11.57;51.87;100727.13;5028895;28;20033;-26
2023/01/08 10:43:07;;;;;;;;;;;;;;;11.84;50.70;100717.16;5028335;28;20043;-32
2023/01/08 10:45:33;;;;;;;18.85;13.43;;;;;;;12.68;47.55;100715.31;5028813;28;19963;-27
2023/01/08 10:48:03;;;;;;;15.68;11.40;;;;;;;12.63;47.07;100710.59;5028237;28;20017;-32
2023/01/08 10:50:31;;;;;;;16.05;10.75;;;;;;;13.19;47.05;100718.81;5028429;28;20029;-26
2023/01/08 10:53:02;;;;;;;15.13;10.18;;;;;;;13.00;47.96;100704.56;5028205;28;20033;-28
2023/01/08 10:55:34;;;;;;;13.82;10.10;;;;;;;13.36;46.33;100694.97;5028774;28;20543;-27
2023/01/08 10:58:14;;;;;;;14.50;10.82;;;;;;;13.37;46.98;100710.03;5027344;28;20022;-27
2023/01/08 11:00:40;;;;;;;16.23;10.45;;;;;;;13.00;47.85;100689.31;5027738;28;20091;-27
2023/01/08 11:03:23;;;;;;;42.80;19.48;;;;;;;13.31;47.56;100703.69;5028907;28;20029;-26
2023/01/08 11:05:49;;;;;;;20.35;12.10;;;;;;;13.95;46.10;100704.19;5029136;28;20033;-26
2023/01/08 11:08:18;;;;;;;16.40;9.95;;;;;;;13.80;44.93;100682.34;5028538;28;20091;-29
2023/01/08 11:10:56;;;;;;;14.02;9.48;;;;;;;14.03;44.30;100698.53;5029071;28;20045;-26
2023/01/08 11:13:22;;;;;;;11.68;9.30;;;;;;;14.28;43.76;100700.25;5028899;28;20106;-32
2023/01/08 11:15:58;;;;;;;9.88;7.78;;;;;;;14.93;42.03;100702.19;5028670;28;20498;-27
2023/01/08 11:18:26;;;;;;;23.48;20.65;;;;;;;14.56;42.72;100690.81;5028847;28;20030;-27